Wetterdaten: Woche 22.02.10 - 28.02.10 (KW8)
Datum Zeit Temperatur Luftfeuchte Luftdruck Niederschlag Wind Richtung Sonnenschein Solar Taupunkt Windchill Windben
22.02.2010 00:00 0.0 C 83 % 999.7 hPa 0.0 l/m 0.1 km/h (0 Bft) O-SO 0.00 h 0 W/m -2.5 C 0.0 C 0.2 km/h (0 Bft)
22.02.2010 01:00 0.2 C 83 % 999.3 hPa 0.0 l/m 1.8 km/h (1 Bft) O-SO 0.00 h 0 W/m -2.3 C 0.1 C 3.3 km/h (1 Bft)
22.02.2010 02:00 0.6 C 82 % 998.6 hPa 0.0 l/m 3.6 km/h (1 Bft) SO 0.00 h 0 W/m -2.2 C -0.1 C 5.8 km/h (2 Bft)
22.02.2010 03:00 1.0 C 79 % 998.5 hPa 0.0 l/m 1.8 km/h (1 Bft) O 0.00 h 0 W/m -2.3 C 0.8 C 3.6 km/h (1 Bft)
22.02.2010 04:00 1.1 C 79 % 998.7 hPa 0.0 l/m 1.6 km/h (1 Bft) SO 0.00 h 0 W/m -2.2 C 1.0 C 3.1 km/h (1 Bft)
22.02.2010 05:00 1.2 C 81 % 998.9 hPa 0.2 l/m 0.5 km/h (0 Bft) N-NW 0.00 h 0 W/m -1.7 C 1.2 C 1.3 km/h (1 Bft)
22.02.2010 06:00 0.8 C 86 % 999.1 hPa 0.6 l/m 0.7 km/h (0 Bft) O-SO 0.00 h 0 W/m -1.3 C 0.7 C 1.4 km/h (1 Bft)
22.02.2010 07:00 1.0 C 90 % 998.9 hPa 1.4 l/m 1.3 km/h (1 Bft) O-SO 0.00 h 7 W/m -0.5 C 0.7 C 2.6 km/h (1 Bft)
22.02.2010 08:00 1.0 C 91 % 999.3 hPa 0.4 l/m 0.1 km/h (0 Bft) S-SO 0.00 h 17 W/m -0.3 C 1.0 C 0.6 km/h (0 Bft)
22.02.2010 09:00 1.4 C 93 % 999.3 hPa 0.2 l/m 0.4 km/h (0 Bft) N-NO 0.00 h 56 W/m 0.4 C 1.4 C 1.3 km/h (1 Bft)
22.02.2010 10:00 2.3 C 95 % 999.2 hPa 0.0 l/m 0.8 km/h (0 Bft) N-NO 0.03 h 114 W/m 1.6 C 2.3 C 1.8 km/h (1 Bft)
22.02.2010 11:00 4.0 C 96 % 998.9 hPa 0.0 l/m 0.7 km/h (0 Bft) N 0.35 h 281 W/m 3.4 C 4.0 C 2.2 km/h (1 Bft)
22.02.2010 12:00 6.0 C 95 % 998.1 hPa 0.0 l/m 0.8 km/h (0 Bft) N 0.58 h 300 W/m 5.3 C 6.0 C 2.2 km/h (1 Bft)
22.02.2010 13:00 8.0 C 86 % 997.0 hPa 0.0 l/m 2.2 km/h (1 Bft) N 0.75 h 317 W/m 5.8 C 7.9 C 4.6 km/h (1 Bft)
22.02.2010 14:00 10.1 C 67 % 996.0 hPa 0.0 l/m 5.9 km/h (2 Bft) SW 0.65 h 327 W/m 4.1 C 9.9 C 10.9 km/h (2 Bft)
22.02.2010 15:00 11.2 C 56 % 995.4 hPa 0.0 l/m 4.1 km/h (1 Bft) SW 0.53 h 220 W/m 2.8 C 11.2 C 7.6 km/h (2 Bft)
22.02.2010 16:00 11.8 C 55 % 994.8 hPa 0.0 l/m 3.3 km/h (1 Bft) S-SO 0.30 h 120 W/m 3.2 C 11.8 C 6.9 km/h (2 Bft)
22.02.2010 17:00 11.0 C 57 % 994.4 hPa 0.0 l/m 2.8 km/h (1 Bft) S-SO 0.33 h 34 W/m 3.0 C 11.0 C 5.5 km/h (1 Bft)
22.02.2010 18:00 9.8 C 62 % 994.7 hPa 0.0 l/m 1.3 km/h (1 Bft) SO 0.00 h 0 W/m 2.8 C 9.8 C 2.7 km/h (1 Bft)
22.02.2010 19:00 7.1 C 72 % 995.1 hPa 0.0 l/m 0.5 km/h (0 Bft) O-NO 0.00 h 0 W/m 2.5 C 7.1 C 1.2 km/h (1 Bft)
22.02.2010 20:00 4.9 C 81 % 995.8 hPa 0.0 l/m 2.0 km/h (1 Bft) O-SO 0.00 h 0 W/m 2.0 C 4.6 C 3.1 km/h (1 Bft)
22.02.2010 21:00 3.6 C 85 % 996.0 hPa 0.0 l/m 1.0 km/h (0 Bft) O-SO 0.00 h 0 W/m 1.3 C 3.4 C 2.0 km/h (1 Bft)
22.02.2010 22:00 3.0 C 88 % 996.3 hPa 0.0 l/m 0.5 km/h (0 Bft) S-SW 0.00 h 0 W/m 1.2 C 3.0 C 1.2 km/h (1 Bft)
22.02.2010 23:00 2.7 C 90 % 996.3 hPa 0.0 l/m 0.8 km/h (0 Bft) S-SW 0.00 h 0 W/m 1.2 C 2.7 C 1.4 km/h (1 Bft)
23.02.2010 00:00 2.8 C 91 % 996.2 hPa 0.0 l/m 0.4 km/h (0 Bft) SO 0.00 h 0 W/m 1.5 C 2.8 C 0.6 km/h (0 Bft)
23.02.2010 01:00 2.9 C 92 % 995.9 hPa 0.0 l/m 0.0 km/h (0 Bft) N 0.00 h 0 W/m 1.7 C 2.9 C 0.0 km/h (0 Bft)
23.02.2010 02:00 2.9 C 92 % 995.9 hPa 0.0 l/m 0.3 km/h (0 Bft) N 0.00 h 0 W/m 1.7 C 2.9 C 1.1 km/h (1 Bft)
23.02.2010 03:00 2.9 C 92 % 995.8 hPa 0.0 l/m 0.4 km/h (0 Bft) N 0.00 h 0 W/m 1.7 C 2.9 C 0.9 km/h (0 Bft)
23.02.2010 04:00 3.2 C 94 % 995.8 hPa 0.0 l/m 1.8 km/h (1 Bft) O-SO 0.00 h 0 W/m 2.2 C 3.0 C 3.7 km/h (1 Bft)
23.02.2010 05:00 4.4 C 94 % 996.1 hPa 0.0 l/m 1.8 km/h (1 Bft) NO 0.00 h 0 W/m 3.5 C 4.3 C 4.1 km/h (1 Bft)
23.02.2010 06:00 5.4 C 91 % 996.3 hPa 0.2 l/m 2.7 km/h (1 Bft) S 0.00 h 0 W/m 4.0 C 5.2 C 5.6 km/h (1 Bft)
23.02.2010 07:00 6.1 C 84 % 996.6 hPa 0.0 l/m 3.9 km/h (1 Bft) S-SO 0.00 h 20 W/m 3.6 C 5.7 C 7.7 km/h (2 Bft)
23.02.2010 08:00 6.5 C 82 % 997.2 hPa 1.0 l/m 0.8 km/h (0 Bft) O-SO 0.00 h 31 W/m 3.6 C 6.5 C 2.7 km/h (1 Bft)
23.02.2010 09:00 6.3 C 87 % 997.7 hPa 0.4 l/m 2.8 km/h (1 Bft) O-SO 0.00 h 64 W/m 4.3 C 6.1 C 6.1 km/h (2 Bft)
23.02.2010 10:00 7.1 C 89 % 997.8 hPa 0.0 l/m 5.5 km/h (1 Bft) S-SW 0.02 h 161 W/m 5.3 C 6.3 C 9.8 km/h (2 Bft)
23.02.2010 11:00 7.7 C 88 % 998.4 hPa 0.4 l/m 7.3 km/h (2 Bft) SW 0.00 h 175 W/m 5.8 C 6.5 C 13.6 km/h (3 Bft)
23.02.2010 12:00 7.8 C 89 % 998.7 hPa 0.6 l/m 5.6 km/h (1 Bft) SW 0.03 h 200 W/m 6.1 C 7.0 C 9.6 km/h (2 Bft)
23.02.2010 13:00 8.2 C 89 % 998.4 hPa 0.2 l/m 4.8 km/h (1 Bft) S-SW 0.00 h 163 W/m 6.6 C 7.8 C 8.0 km/h (2 Bft)
23.02.2010 14:00 8.8 C 88 % 998.3 hPa 0.0 l/m 6.3 km/h (2 Bft) SW 0.53 h 280 W/m 7.0 C 8.2 C 10.9 km/h (2 Bft)
23.02.2010 15:00 10.5 C 77 % 998.0 hPa 0.0 l/m 9.0 km/h (2 Bft) SW 0.30 h 202 W/m 6.6 C 10.3 C 15.0 km/h (3 Bft)
23.02.2010 16:00 9.7 C 77 % 998.3 hPa 0.0 l/m 8.9 km/h (2 Bft) SW 0.32 h 115 W/m 5.8 C 8.5 C 15.4 km/h (3 Bft)
23.02.2010 17:00 9.1 C 77 % 998.6 hPa 0.0 l/m 7.8 km/h (2 Bft) S-SW 0.02 h 22 W/m 5.3 C 8.0 C 13.7 km/h (3 Bft)
23.02.2010 18:00 8.6 C 78 % 999.3 hPa 0.0 l/m 4.5 km/h (1 Bft) S-SO 0.00 h 0 W/m 5.0 C 8.1 C 8.0 km/h (2 Bft)
23.02.2010 19:00 8.4 C 79 % 999.9 hPa 0.0 l/m 3.8 km/h (1 Bft) S-SO 0.00 h 0 W/m 4.9 C 8.1 C 7.1 km/h (2 Bft)
23.02.2010 20:00 8.2 C 79 % 1000.0 hPa 0.0 l/m 3.9 km/h (1 Bft) S 0.00 h 0 W/m 4.8 C 7.9 C 7.6 km/h (2 Bft)
23.02.2010 21:00 7.5 C 81 % 1000.6 hPa 0.0 l/m 1.4 km/h (1 Bft) S-SO 0.00 h 0 W/m 4.4 C 7.5 C 3.1 km/h (1 Bft)
23.02.2010 22:00 6.1 C 85 % 1000.9 hPa 0.0 l/m 0.3 km/h (0 Bft) S-SO 0.00 h 0 W/m 3.7 C 6.1 C 1.3 km/h (1 Bft)
23.02.2010 23:00 5.0 C 88 % 1001.3 hPa 0.0 l/m 1.0 km/h (0 Bft) N 0.00 h 0 W/m 3.2 C 5.0 C 2.1 km/h (1 Bft)
24.02.2010 00:00 4.3 C 90 % 1001.7 hPa 0.0 l/m 1.9 km/h (1 Bft) SO 0.00 h 0 W/m 2.9 C 4.2 C 3.1 km/h (1 Bft)
24.02.2010 01:00 4.8 C 93 % 1001.9 hPa 0.0 l/m 2.4 km/h (1 Bft) O-SO 0.00 h 0 W/m 3.7 C 4.6 C 4.0 km/h (1 Bft)
24.02.2010 02:00 4.9 C 92 % 1001.8 hPa 0.0 l/m 1.0 km/h (0 Bft) SO 0.00 h 0 W/m 3.7 C 4.9 C 2.4 km/h (1 Bft)
24.02.2010 03:00 4.4 C 92 % 1001.8 hPa 0.0 l/m 0.8 km/h (0 Bft) N-NW 0.00 h 0 W/m 3.2 C 4.3 C 1.9 km/h (1 Bft)
24.02.2010 04:00 4.0 C 93 % 1001.8 hPa 0.0 l/m 0.6 km/h (0 Bft) O 0.00 h 0 W/m 2.9 C 4.0 C 1.8 km/h (1 Bft)
24.02.2010 05:00 4.1 C 94 % 1001.7 hPa 0.0 l/m 2.4 km/h (1 Bft) O-SO 0.00 h 0 W/m 3.2 C 3.8 C 3.9 km/h (1 Bft)
24.02.2010 06:00 3.2 C 93 % 1001.8 hPa 0.0 l/m 0.2 km/h (0 Bft) N 0.00 h 0 W/m 2.2 C 3.2 C 0.7 km/h (0 Bft)
24.02.2010 07:00 2.5 C 94 % 1002.0 hPa 0.0 l/m 1.0 km/h (0 Bft) W-NW 0.00 h 17 W/m 1.6 C 2.5 C 2.3 km/h (1 Bft)
24.02.2010 08:00 2.7 C 95 % 1002.6 hPa 0.8 l/m 0.0 km/h (0 Bft) N 0.13 h 45 W/m 2.0 C 2.7 C 0.4 km/h (0 Bft)
24.02.2010 09:00 3.2 C 95 % 1003.1 hPa 0.6 l/m 0.2 km/h (0 Bft) N-NW 0.00 h 41 W/m 2.6 C 3.2 C 0.6 km/h (0 Bft)
24.02.2010 10:00 4.1 C 96 % 1003.3 hPa 0.0 l/m 0.3 km/h (0 Bft) N-NW 0.00 h 105 W/m 3.6 C 4.1 C 0.9 km/h (0 Bft)
24.02.2010 11:00 5.5 C 97 % 1003.5 hPa 0.0 l/m 0.4 km/h (0 Bft) N-NW 0.10 h 211 W/m 5.1 C 5.5 C 1.0 km/h (0 Bft)
24.02.2010 12:00 7.3 C 97 % 1003.1 hPa 0.0 l/m 1.0 km/h (0 Bft) N-NW 0.53 h 286 W/m 6.8 C 7.2 C 2.7 km/h (1 Bft)
24.02.2010 13:00 9.7 C 90 % 1002.6 hPa 0.0 l/m 3.6 km/h (1 Bft) W-NW 0.90 h 463 W/m 8.1 C 9.6 C 6.2 km/h (2 Bft)
24.02.2010 14:00 11.2 C 75 % 1002.2 hPa 0.2 l/m 2.8 km/h (1 Bft) N 0.53 h 288 W/m 6.9 C 11.2 C 4.7 km/h (1 Bft)
24.02.2010 15:00 11.6 C 70 % 1002.1 hPa 0.0 l/m 2.5 km/h (1 Bft) S 0.20 h 179 W/m 6.3 C 11.6 C 5.2 km/h (1 Bft)
24.02.2010 16:00 11.5 C 67 % 1002.0 hPa 0.0 l/m 4.3 km/h (1 Bft) S 0.58 h 142 W/m 5.6 C 11.5 C 7.8 km/h (2 Bft)
24.02.2010 17:00 10.8 C 68 % 1002.1 hPa 0.0 l/m 4.9 km/h (1 Bft) S-SW 0.07 h 31 W/m 5.1 C 10.8 C 8.3 km/h (2 Bft)
24.02.2010 18:00 9.6 C 73 % 1003.0 hPa 0.0 l/m 0.6 km/h (0 Bft) W-SW 0.00 h 0 W/m 4.9 C 9.6 C 1.9 km/h (1 Bft)
24.02.2010 19:00 8.4 C 82 % 1004.5 hPa 1.0 l/m 4.6 km/h (1 Bft) SW 0.00 h 0 W/m 5.5 C 7.8 C 7.6 km/h (2 Bft)
24.02.2010 20:00 7.1 C 87 % 1005.4 hPa 0.2 l/m 6.7 km/h (2 Bft) S-SW 0.00 h 0 W/m 5.0 C 6.0 C 11.1 km/h (2 Bft)
24.02.2010 21:00 6.3 C 83 % 1006.0 hPa 0.0 l/m 5.3 km/h (1 Bft) S 0.00 h 0 W/m 3.7 C 5.5 C 9.2 km/h (2 Bft)
24.02.2010 22:00 6.2 C 81 % 1006.3 hPa 0.0 l/m 5.9 km/h (2 Bft) S 0.00 h 0 W/m 3.2 C 5.3 C 10.3 km/h (2 Bft)
24.02.2010 23:00 6.3 C 80 % 1005.8 hPa 0.0 l/m 4.5 km/h (1 Bft) S 0.00 h 0 W/m 3.0 C 5.7 C 8.4 km/h (2 Bft)
25.02.2010 00:00 6.0 C 79 % 1005.5 hPa 0.0 l/m 3.8 km/h (1 Bft) S-SO 0.00 h 0 W/m 2.7 C 5.6 C 7.1 km/h (2 Bft)
25.02.2010 01:00 5.7 C 80 % 1005.2 hPa 0.0 l/m 2.5 km/h (1 Bft) S-SO 0.00 h 0 W/m 2.6 C 5.4 C 5.5 km/h (1 Bft)
25.02.2010 02:00 5.6 C 80 % 1004.7 hPa 0.0 l/m 5.4 km/h (1 Bft) S-SW 0.00 h 0 W/m 2.5 C 4.7 C 9.4 km/h (2 Bft)
25.02.2010 03:00 5.2 C 81 % 1004.5 hPa 0.0 l/m 3.1 km/h (1 Bft) S-SO 0.00 h 0 W/m 2.2 C 4.9 C 6.4 km/h (2 Bft)
25.02.2010 04:00 5.1 C 82 % 1004.1 hPa 0.0 l/m 3.2 km/h (1 Bft) S-SO 0.00 h 0 W/m 2.2 C 4.8 C 6.3 km/h (2 Bft)
25.02.2010 05:00 4.9 C 79 % 1004.1 hPa 0.0 l/m 2.5 km/h (1 Bft) S-SO 0.00 h 0 W/m 1.7 C 4.7 C 4.6 km/h (1 Bft)
25.02.2010 06:00 4.1 C 81 % 1004.2 hPa 0.0 l/m 2.9 km/h (1 Bft) SO 0.00 h 0 W/m 1.2 C 3.8 C 5.0 km/h (1 Bft)
25.02.2010 07:00 4.1 C 83 % 1004.5 hPa 0.0 l/m 2.4 km/h (1 Bft) S-SO 0.00 h 11 W/m 1.5 C 3.9 C 4.0 km/h (1 Bft)
25.02.2010 08:00 4.2 C 85 % 1004.3 hPa 0.0 l/m 0.1 km/h (0 Bft) S-SO 0.00 h 52 W/m 1.8 C 4.2 C 0.5 km/h (0 Bft)
25.02.2010 09:00 5.0 C 86 % 1003.8 hPa 0.0 l/m 0.1 km/h (0 Bft) S-SO 0.47 h 196 W/m 2.8 C 5.0 C 0.5 km/h (0 Bft)
25.02.2010 10:00 7.9 C 74 % 1003.0 hPa 0.0 l/m 1.9 km/h (1 Bft) S 0.87 h 372 W/m 3.5 C 7.8 C 3.7 km/h (1 Bft)
25.02.2010 11:00 10.5 C 61 % 1002.3 hPa 0.0 l/m 5.1 km/h (1 Bft) S-SO 0.98 h 458 W/m 3.4 C 10.5 C 9.0 km/h (2 Bft)
25.02.2010 12:00 12.0 C 53 % 1001.2 hPa 0.0 l/m 8.1 km/h (2 Bft) SO 1.00 h 477 W/m 2.8 C 12.0 C 14.0 km/h (3 Bft)
25.02.2010 13:00 12.3 C 52 % 1000.4 hPa 0.0 l/m 6.8 km/h (2 Bft) S-SO 0.88 h 316 W/m 2.8 C 12.3 C 12.9 km/h (3 Bft)
25.02.2010 14:00 12.2 C 54 % 999.4 hPa 0.0 l/m 7.7 km/h (2 Bft) SW 0.17 h 214 W/m 3.2 C 12.2 C 14.0 km/h (3 Bft)
25.02.2010 15:00 11.5 C 57 % 999.0 hPa 0.0 l/m 8.6 km/h (2 Bft) S-SW 0.00 h 100 W/m 3.2 C 11.5 C 15.5 km/h (3 Bft)
25.02.2010 16:00 10.2 C 69 % 998.9 hPa 0.6 l/m 4.4 km/h (1 Bft) O-SO 0.00 h 28 W/m 4.6 C 10.1 C 6.6 km/h (2 Bft)
25.02.2010 17:00 8.6 C 82 % 999.5 hPa 1.8 l/m 2.2 km/h (1 Bft) S-SO 0.00 h 8 W/m 5.7 C 8.4 C 4.3 km/h (1 Bft)
25.02.2010 18:00 7.9 C 87 % 999.4 hPa 2.6 l/m 3.9 km/h (1 Bft) O-SO 0.00 h 0 W/m 5.8 C 7.6 C 5.8 km/h (2 Bft)
25.02.2010 19:00 7.3 C 91 % 998.6 hPa 1.8 l/m 0.7 km/h (0 Bft) O-SO 0.00 h 0 W/m 5.9 C 7.3 C 2.0 km/h (1 Bft)
25.02.2010 20:00 7.1 C 93 % 998.2 hPa 1.4 l/m 0.0 km/h (0 Bft) W 0.00 h 0 W/m 5.9 C 7.1 C 0.2 km/h (0 Bft)
25.02.2010 21:00 6.8 C 94 % 998.0 hPa 2.8 l/m 0.2 km/h (0 Bft) W 0.00 h 0 W/m 5.9 C 6.8 C 0.7 km/h (0 Bft)
25.02.2010 22:00 6.6 C 95 % 997.8 hPa 3.6 l/m 1.5 km/h (1 Bft) O-SO 0.00 h 0 W/m 5.8 C 6.5 C 2.8 km/h (1 Bft)
25.02.2010 23:00 6.4 C 96 % 996.8 hPa 0.8 l/m 1.1 km/h (1 Bft) W-NW 0.00 h 0 W/m 5.9 C 6.4 C 2.2 km/h (1 Bft)
26.02.2010 00:00 6.0 C 96 % 996.2 hPa 0.4 l/m 0.5 km/h (0 Bft) SO 0.00 h 0 W/m 5.4 C 6.0 C 1.2 km/h (1 Bft)
26.02.2010 01:00 6.0 C 97 % 995.8 hPa 0.0 l/m 0.8 km/h (0 Bft) SO 0.00 h 0 W/m 5.5 C 6.0 C 1.4 km/h (1 Bft)
26.02.2010 02:00 6.1 C 97 % 995.7 hPa 0.0 l/m 2.1 km/h (1 Bft) O-SO 0.00 h 0 W/m 5.7 C 5.9 C 3.7 km/h (1 Bft)
26.02.2010 03:00 6.3 C 98 % 995.7 hPa 1.6 l/m 3.5 km/h (1 Bft) S-SO 0.00 h 0 W/m 6.0 C 5.9 C 6.3 km/h (2 Bft)
26.02.2010 04:00 6.6 C 98 % 996.1 hPa 0.2 l/m 6.5 km/h (2 Bft) S-SW 0.00 h 0 W/m 6.3 C 5.5 C 11.0 km/h (2 Bft)
26.02.2010 05:00 6.6 C 96 % 996.2 hPa 0.0 l/m 8.1 km/h (2 Bft) SW 0.00 h 0 W/m 6.1 C 5.1 C 14.5 km/h (3 Bft)
26.02.2010 06:00 6.3 C 91 % 996.3 hPa 0.0 l/m 11.7 km/h (2 Bft) S-SW 0.00 h 0 W/m 4.9 C 4.0 C 19.8 km/h (3 Bft)
26.02.2010 07:00 6.2 C 86 % 996.8 hPa 0.0 l/m 9.7 km/h (2 Bft) SW 0.05 h 19 W/m 4.0 C 4.2 C 17.2 km/h (3 Bft)
26.02.2010 08:00 6.6 C 81 % 997.3 hPa 0.0 l/m 9.1 km/h (2 Bft) SW 0.00 h 60 W/m 3.7 C 4.9 C 15.2 km/h (3 Bft)
26.02.2010 09:00 7.9 C 70 % 997.5 hPa 0.0 l/m 9.6 km/h (2 Bft) SW 0.05 h 112 W/m 2.8 C 6.3 C 15.3 km/h (3 Bft)
26.02.2010 10:00 8.7 C 67 % 997.1 hPa 0.0 l/m 11.1 km/h (2 Bft) SW 0.23 h 202 W/m 3.0 C 7.0 C 17.4 km/h (3 Bft)
26.02.2010 11:00 9.4 C 63 % 996.6 hPa 0.0 l/m 19.5 km/h (3 Bft) W-SW 0.22 h 219 W/m 2.6 C 7.7 C 30.0 km/h (5 Bft)
26.02.2010 12:00 9.8 C 61 % 997.3 hPa 0.0 l/m 21.6 km/h (4 Bft) W 0.62 h 432 W/m 2.6 C 7.8 C 32.5 km/h (5 Bft)
26.02.2010 13:00 9.1 C 56 % 998.6 hPa 0.0 l/m 23.0 km/h (4 Bft) W 0.00 h 123 W/m 0.8 C 6.0 C 34.3 km/h (5 Bft)
26.02.2010 14:00 7.2 C 60 % 1001.1 hPa 0.0 l/m 24.0 km/h (4 Bft) W 0.00 h 94 W/m -0.2 C 3.5 C 35.0 km/h (5 Bft)
26.02.2010 15:00 6.8 C 61 % 1002.3 hPa 0.0 l/m 14.3 km/h (3 Bft) W 0.02 h 114 W/m -0.1 C 4.1 C 22.0 km/h (4 Bft)
26.02.2010 16:00 7.4 C 59 % 1002.8 hPa 0.2 l/m 14.0 km/h (3 Bft) W 0.00 h 51 W/m -0.1 C 5.0 C 21.9 km/h (4 Bft)
26.02.2010 17:00 7.5 C 58 % 1003.4 hPa 0.0 l/m 11.7 km/h (2 Bft) W 0.02 h 31 W/m -0.3 C 5.4 C 18.5 km/h (3 Bft)
26.02.2010 18:00 7.3 C 60 % 1004.7 hPa 0.0 l/m 8.2 km/h (2 Bft) SW 0.00 h 5 W/m 0.0 C 5.9 C 12.8 km/h (3 Bft)
26.02.2010 19:00 6.6 C 67 % 1005.9 hPa 0.0 l/m 10.2 km/h (2 Bft) SW 0.00 h 0 W/m 0.8 C 4.6 C 15.6 km/h (3 Bft)
26.02.2010 20:00 6.3 C 67 % 1007.0 hPa 0.0 l/m 5.2 km/h (1 Bft) S-SW 0.00 h 0 W/m 0.7 C 5.6 C 8.8 km/h (2 Bft)
26.02.2010 21:00 5.3 C 71 % 1007.9 hPa 0.0 l/m 4.9 km/h (1 Bft) S-SW 0.00 h 0 W/m 0.6 C 4.6 C 8.2 km/h (2 Bft)
26.02.2010 22:00 5.1 C 74 % 1008.6 hPa 0.0 l/m 6.4 km/h (2 Bft) S-SO 0.00 h 0 W/m 0.8 C 3.8 C 11.4 km/h (2 Bft)
26.02.2010 23:00 4.7 C 75 % 1009.0 hPa 0.0 l/m 7.4 km/h (2 Bft) S-SO 0.00 h 0 W/m 0.6 C 3.0 C 12.7 km/h (3 Bft)
27.02.2010 00:00 4.3 C 76 % 1009.4 hPa 0.0 l/m 9.1 km/h (2 Bft) S-SO 0.00 h 0 W/m 0.4 C 2.1 C 14.5 km/h (3 Bft)
27.02.2010 01:00 3.2 C 77 % 1010.0 hPa 0.0 l/m 2.8 km/h (1 Bft) O-SO 0.00 h 0 W/m -0.4 C 2.9 C 4.5 km/h (1 Bft)
27.02.2010 02:00 2.4 C 79 % 1010.5 hPa 0.0 l/m 1.4 km/h (1 Bft) SO 0.00 h 0 W/m -0.9 C 2.3 C 2.7 km/h (1 Bft)
27.02.2010 03:00 2.3 C 81 % 1010.4 hPa 0.0 l/m 3.4 km/h (1 Bft) S-SO 0.00 h 0 W/m -0.7 C 1.8 C 6.5 km/h (2 Bft)
27.02.2010 04:00 3.0 C 77 % 1010.3 hPa 0.0 l/m 7.2 km/h (2 Bft) S-SO 0.00 h 0 W/m -0.6 C 1.2 C 12.6 km/h (3 Bft)
27.02.2010 05:00 2.9 C 76 % 1010.6 hPa 0.0 l/m 4.5 km/h (1 Bft) S 0.00 h 0 W/m -0.9 C 2.2 C 8.6 km/h (2 Bft)
27.02.2010 06:00 2.5 C 77 % 1010.5 hPa 0.0 l/m 4.3 km/h (1 Bft) S-SO 0.00 h 0 W/m -1.2 C 1.7 C 7.3 km/h (2 Bft)
27.02.2010 07:00 2.1 C 78 % 1010.5 hPa 0.0 l/m 3.3 km/h (1 Bft) S-SO 0.15 h 23 W/m -1.3 C 1.6 C 5.9 km/h (2 Bft)
27.02.2010 08:00 2.3 C 78 % 1010.7 hPa 0.0 l/m 2.3 km/h (1 Bft) S-SO 0.27 h 106 W/m -1.1 C 2.3 C 3.9 km/h (1 Bft)
27.02.2010 09:00 4.6 C 71 % 1010.4 hPa 0.0 l/m 1.8 km/h (1 Bft) S-SO 1.00 h 271 W/m -0.4 C 4.5 C 3.6 km/h (1 Bft)
27.02.2010 10:00 7.5 C 55 % 1009.4 hPa 0.0 l/m 3.6 km/h (1 Bft) SO 1.00 h 421 W/m -0.9 C 7.2 C 6.0 km/h (2 Bft)
27.02.2010 11:00 9.0 C 52 % 1008.8 hPa 0.0 l/m 5.1 km/h (1 Bft) S-SO 1.00 h 490 W/m -0.4 C 8.6 C 8.9 km/h (2 Bft)
27.02.2010 12:00 10.4 C 47 % 1007.6 hPa 0.2 l/m 4.2 km/h (1 Bft) SO 1.00 h 517 W/m -0.5 C 10.2 C 7.4 km/h (2 Bft)
27.02.2010 13:00 12.1 C 41 % 1006.3 hPa 0.0 l/m 2.5 km/h (1 Bft) W-SW 1.00 h 463 W/m -0.8 C 12.1 C 5.0 km/h (1 Bft)
27.02.2010 14:00 12.3 C 38 % 1004.9 hPa 0.0 l/m 0.8 km/h (0 Bft) SO 0.62 h 283 W/m -1.8 C 12.3 C 2.4 km/h (1 Bft)
27.02.2010 15:00 11.9 C 38 % 1003.4 hPa 0.0 l/m 0.9 km/h (0 Bft) W-NW 0.00 h 160 W/m -2.0 C 11.9 C 2.2 km/h (1 Bft)
27.02.2010 16:00 11.5 C 39 % 1002.0 hPa 0.0 l/m 0.5 km/h (0 Bft) N 0.00 h 93 W/m -2.1 C 11.5 C 1.9 km/h (1 Bft)
27.02.2010 17:00 10.7 C 41 % 1001.1 hPa 0.0 l/m 1.7 km/h (1 Bft) N-NW 0.00 h 28 W/m -1.9 C 10.7 C 3.9 km/h (1 Bft)
27.02.2010 18:00 9.1 C 53 % 1001.0 hPa 0.0 l/m 0.6 km/h (0 Bft) N-NO 0.00 h 0 W/m -0.0 C 9.1 C 1.1 km/h (1 Bft)
27.02.2010 19:00 7.8 C 59 % 1001.4 hPa 0.0 l/m 1.9 km/h (1 Bft) O-SO 0.00 h 0 W/m 0.3 C 7.7 C 3.6 km/h (1 Bft)
27.02.2010 20:00 7.3 C 61 % 999.8 hPa 0.0 l/m 3.4 km/h (1 Bft) S-SO 0.00 h 0 W/m 0.4 C 6.9 C 6.0 km/h (2 Bft)
27.02.2010 21:00 7.0 C 64 % 997.8 hPa 0.0 l/m 0.8 km/h (0 Bft) W 0.00 h 0 W/m 0.7 C 7.0 C 1.9 km/h (1 Bft)
27.02.2010 22:00 6.5 C 68 % 996.4 hPa 0.0 l/m 1.1 km/h (0 Bft) SO 0.00 h 0 W/m 0.9 C 6.4 C 2.5 km/h (1 Bft)
27.02.2010 23:00 6.1 C 75 % 995.2 hPa 0.6 l/m 0.6 km/h (0 Bft) W 0.00 h 0 W/m 1.9 C 6.1 C 1.8 km/h (1 Bft)
28.02.2010 00:00 5.2 C 83 % 994.3 hPa 0.6 l/m 0.1 km/h (0 Bft) W 0.00 h 0 W/m 2.6 C 5.2 C 0.7 km/h (0 Bft)
28.02.2010 01:00 4.6 C 87 % 992.9 hPa 0.0 l/m 0.7 km/h (0 Bft) SW 0.00 h 0 W/m 2.7 C 4.6 C 1.6 km/h (1 Bft)
28.02.2010 02:00 4.4 C 89 % 991.6 hPa 0.0 l/m 1.2 km/h (1 Bft) N-NW 0.00 h 0 W/m 2.8 C 4.3 C 2.4 km/h (1 Bft)
28.02.2010 03:00 4.2 C 90 % 991.4 hPa 0.0 l/m 1.7 km/h (1 Bft) O-SO 0.00 h 0 W/m 2.8 C 4.1 C 2.6 km/h (1 Bft)
28.02.2010 04:00 4.3 C 92 % 991.4 hPa 0.4 l/m 3.0 km/h (1 Bft) O-SO 0.00 h 0 W/m 3.0 C 3.7 C 5.0 km/h (1 Bft)
28.02.2010 05:00 4.3 C 93 % 991.8 hPa 0.2 l/m 3.0 km/h (1 Bft) O-SO 0.00 h 0 W/m 3.2 C 3.8 C 4.9 km/h (1 Bft)
28.02.2010 06:00 4.4 C 94 % 992.4 hPa 1.0 l/m 1.6 km/h (1 Bft) SO 0.00 h 0 W/m 3.5 C 4.2 C 3.0 km/h (1 Bft)
28.02.2010 07:00 4.5 C 95 % 993.1 hPa 0.8 l/m 2.0 km/h (1 Bft) O-SO 0.00 h 0 W/m 3.7 C 4.2 C 3.6 km/h (1 Bft)
28.02.2010 08:00 4.7 C 95 % 993.5 hPa 0.0 l/m 1.9 km/h (1 Bft) O-NO 0.00 h 22 W/m 4.0 C 4.5 C 3.6 km/h (1 Bft)
28.02.2010 09:00 6.1 C 91 % 993.6 hPa 0.0 l/m 10.3 km/h (2 Bft) S-SO 0.00 h 78 W/m 4.7 C 4.1 C 17.7 km/h (3 Bft)
28.02.2010 10:00 8.9 C 77 % 993.6 hPa 0.0 l/m 15.3 km/h (3 Bft) S 0.07 h 175 W/m 5.0 C 6.9 C 26.2 km/h (4 Bft)
28.02.2010 11:00 11.9 C 66 % 993.7 hPa 0.0 l/m 21.5 km/h (4 Bft) SW 0.20 h 242 W/m 5.7 C 11.9 C 32.6 km/h (5 Bft)
28.02.2010 12:00 13.8 C 53 % 995.1 hPa 0.0 l/m 21.5 km/h (4 Bft) W-SW 0.47 h 371 W/m 4.5 C 13.8 C 32.0 km/h (5 Bft)
28.02.2010 13:00 13.3 C 50 % 996.9 hPa 0.0 l/m 21.3 km/h (4 Bft) W-SW 0.00 h 131 W/m 3.0 C 13.3 C 32.2 km/h (5 Bft)
28.02.2010 14:00 13.4 C 47 % 997.9 hPa 0.2 l/m 21.3 km/h (4 Bft) SW 0.12 h 203 W/m 2.3 C 13.4 C 31.2 km/h (5 Bft)
28.02.2010 15:00 13.7 C 44 % 998.3 hPa 0.0 l/m 21.9 km/h (4 Bft) SW 0.30 h 184 W/m 1.8 C 13.7 C 33.2 km/h (5 Bft)
28.02.2010 16:00 13.3 C 44 % 998.9 hPa 0.0 l/m 14.5 km/h (3 Bft) W-SW 0.22 h 123 W/m 1.5 C 13.3 C 22.0 km/h (4 Bft)
28.02.2010 17:00 12.5 C 48 % 999.6 hPa 0.0 l/m 10.3 km/h (2 Bft) W 0.00 h 18 W/m 1.8 C 12.5 C 16.5 km/h (3 Bft)
28.02.2010 18:00 10.9 C 56 % 1000.7 hPa 0.0 l/m 9.1 km/h (2 Bft) SW 0.00 h 6 W/m 2.6 C 10.9 C 14.0 km/h (3 Bft)
28.02.2010 19:00 10.5 C 54 % 1002.2 hPa 0.0 l/m 11.3 km/h (2 Bft) W 0.00 h 0 W/m 1.7 C 10.5 C 17.3 km/h (3 Bft)
28.02.2010 20:00 10.3 C 49 % 1003.1 hPa 0.0 l/m 17.9 km/h (3 Bft) W 0.00 h 0 W/m -0.0 C 10.3 C 27.6 km/h (4 Bft)
28.02.2010 21:00 9.7 C 49 % 1004.2 hPa 0.0 l/m 19.5 km/h (3 Bft) W 0.00 h 0 W/m -0.4 C 7.4 C 28.9 km/h (5 Bft)
28.02.2010 22:00 9.1 C 54 % 1005.1 hPa 0.0 l/m 19.8 km/h (4 Bft) W 0.00 h 0 W/m 0.3 C 6.4 C 29.9 km/h (5 Bft)
28.02.2010 23:00 8.4 C 57 % 1005.8 hPa 0.0 l/m 19.1 km/h (3 Bft) W 0.00 h 0 W/m 0.3 C 5.5 C 28.0 km/h (4 Bft)
Min-Datum _ 22.02.10 27.02.10 28.02.10 - 22.02.10 - - - 27.02.10 22.02.10 22.02.10
_ Min-Zeit 00:00 14:49 04:45 - 00:00 - - - 14:57 02:55 00:00
Minimum _ -0.2 C 34 % 990.7 hPa - 0.0 km/h (0 Bft) - - - -3.2 C -2.0 C 0.0 km/h (0 Bft)
Max-Datum _ 28.02.10 24.02.10 27.02.10 25.02.10 26.02.10 - 22.02.10 28.02.10 24.02.10 28.02.10 26.02.10
_ Max-Zeit 14:58 11:48 07:45 22:02 14:40 - 10:58 12:18 13:19 14:58 14:41
Maximum _ 14.3 C 98 % 1010.8 hPa 3.6 l/m 43.5 km/h
W (6 Bft)
- 0.02 h 828 W/m 8.4 C 14.3 C 60.8 km/h
W (7 Bft)
Durchschnitt _ 6.7 C 77 % 1000.4 hPa #30.2 l/m 5.0 km/h (1 Bft) S-SO #20:46 h 78 W/m 2.5 C 6.2 C 8.4 km/h (2 Bft)
© Kaiko 2010